Time;durP1;ratioP1;P1;durP2;ratioP2;P2;SDS_P1;SDS_P2;PMS_P1;PMS_P2;Temp;Humidity;BMP_temperature;BMP_pressure;BME280_temperature;BME280_humidity;BME280_pressure;Samples;Min_cycle;Max_cycle;Signal;HPM_P1;HPM_P2
2021/06/12 00:01:26;;;;;;;3.63;3.33;;;18.90;99.90;;;;;;4966353;28;20218;-72
2021/06/12 00:03:54;;;;;;;2.83;2.63;;;18.80;99.90;;;;;;4966315;28;20197;-72
2021/06/12 00:06:20;;;;;;;3.15;2.95;;;18.80;99.90;;;;;;4967941;28;20221;-72
2021/06/12 00:08:47;;;;;;;3.17;2.88;;;18.80;99.90;;;;;;4970504;28;20217;-73
2021/06/12 00:11:14;;;;;;;3.10;2.80;;;18.70;99.90;;;;;;4966130;28;20807;-73
2021/06/12 00:13:40;;;;;;;3.15;2.95;;;18.70;99.90;;;;;;4961996;28;20210;-71
2021/06/12 00:16:07;;;;;;;3.03;2.83;;;18.70;99.90;;;;;;4986343;28;20240;-72
2021/06/12 00:18:33;;;;;;;3.00;2.80;;;18.70;99.90;;;;;;4972230;28;20201;-72
2021/06/12 00:21:02;;;;;;;3.00;2.80;;;18.70;99.90;;;;;;4974741;28;20234;-73
2021/06/12 00:23:29;;;;;;;3.30;3.10;;;18.70;99.90;;;;;;4968858;28;20397;-73
2021/06/12 00:25:55;;;;;;;2.88;2.67;;;18.70;99.90;;;;;;4961194;28;20300;-72
2021/06/12 00:28:22;;;;;;;3.58;3.28;;;18.70;99.90;;;;;;4968711;28;20212;-73
2021/06/12 00:30:49;;;;;;;3.55;3.35;;;18.70;99.90;;;;;;4962590;28;20233;-72
2021/06/12 00:33:16;;;;;;;3.30;3.10;;;18.70;99.90;;;;;;4966780;28;20201;-72
2021/06/12 00:35:43;;;;;;;3.20;3.00;;;18.60;99.90;;;;;;4963310;28;20757;-72
2021/06/12 00:38:12;;;;;;;3.40;3.20;;;18.50;99.90;;;;;;4965909;28;20197;-73
2021/06/12 00:40:38;;;;;;;3.20;3.00;;;18.50;99.90;;;;;;4963924;28;20217;-72
2021/06/12 00:43:05;;;;;;;3.42;3.22;;;18.50;99.90;;;;;;4963585;28;20201;-72
2021/06/12 00:45:33;;;;;;;3.05;2.85;;;18.50;99.90;;;;;;4967801;28;20201;-72
2021/06/12 00:48:01;;;;;;;3.20;3.00;;;18.60;99.90;;;;;;4969218;28;20257;-72
2021/06/12 00:50:30;;;;;;;3.50;3.20;;;18.50;99.90;;;;;;4965793;28;20700;-72
2021/06/12 00:52:57;;;;;;;3.38;3.13;;;18.50;99.90;;;;;;4975777;28;20213;-72
2021/06/12 00:55:26;;;;;;;3.25;3.05;;;18.60;99.90;;;;;;4963447;28;20209;-73
2021/06/12 00:57:53;;;;;;;3.88;3.15;;;18.50;99.90;;;;;;4961295;28;20677;-72
2021/06/12 01:00:21;;;;;;;3.20;3.00;;;18.50;99.90;;;;;;4962329;28;20213;-73
2021/06/12 01:02:49;;;;;;;3.13;2.92;;;18.50;99.90;;;;;;4971772;28;20229;-72
2021/06/12 01:05:17;;;;;;;2.90;2.70;;;18.40;99.90;;;;;;4987696;28;20201;-73
2021/06/12 01:07:44;;;;;;;15.23;3.30;;;18.30;99.90;;;;;;4982584;28;20293;-73
2021/06/12 01:10:14;;;;;;;3.33;3.13;;;18.30;99.90;;;;;;4969365;28;20213;-73
2021/06/12 01:12:51;;;;;;;2.97;2.78;;;18.30;99.90;;;;;;4971940;28;20627;-73
2021/06/12 01:15:18;;;;;;;3.20;3.00;;;18.30;99.90;;;;;;4966503;28;20201;-72
2021/06/12 01:17:51;;;;;;;3.05;2.85;;;18.30;99.90;;;;;;4969524;28;20239;-71
2021/06/12 01:20:44;;;;;;;2.97;2.78;;;18.20;99.90;;;;;;4966769;28;20225;-72
2021/06/12 01:23:49;;;;;;;3.25;3.05;;;18.20;99.90;;;;;;4965197;28;20214;-72
2021/06/12 01:26:31;;;;;;;3.28;3.08;;;18.20;99.90;;;;;;4962842;28;20220;-72
2021/06/12 01:29:07;;;;;;;3.45;3.25;;;18.20;99.90;;;;;;4966484;28;20928;-73
2021/06/12 01:31:37;;;;;;;3.40;3.20;;;18.20;99.90;;;;;;4961577;28;20217;-72
2021/06/12 01:34:05;;;;;;;3.42;3.13;;;18.20;99.90;;;;;;4960108;28;20208;-71
2021/06/12 01:36:32;;;;;;;3.33;3.13;;;18.20;99.90;;;;;;4959539;28;20221;-72
2021/06/12 01:39:00;;;;;;;3.75;3.45;;;18.20;99.90;;;;;;4962413;28;20268;-72
2021/06/12 01:41:29;;;;;;;3.20;3.00;;;18.20;99.90;;;;;;4965114;28;20245;-71
2021/06/12 01:43:57;;;;;;;3.38;3.17;;;18.10;99.90;;;;;;4962339;28;20206;-72
2021/06/12 01:46:25;;;;;;;3.70;3.40;;;18.10;99.90;;;;;;4960021;28;20577;-71
2021/06/12 01:48:55;;;;;;;2.90;2.70;;;18.10;99.90;;;;;;4965407;28;20224;-72
2021/06/12 01:51:22;;;;;;;3.33;3.13;;;18.10;99.90;;;;;;4975269;28;20232;-73
2021/06/12 01:53:53;;;;;;;3.38;3.17;;;18.10;99.90;;;;;;4970727;28;20660;-72
2021/06/12 01:56:23;;;;;;;3.45;3.15;;;18.10;99.90;;;;;;4963677;28;20221;-73
2021/06/12 01:58:50;;;;;;;3.15;2.95;;;18.20;99.90;;;;;;4976623;28;20220;-73
2021/06/12 02:01:19;;;;;;;3.42;3.22;;;18.20;99.90;;;;;;4965082;28;20205;-74
2021/06/12 02:03:47;;;;;;;3.47;3.28;;;18.20;99.90;;;;;;4972299;28;20211;-73
2021/06/12 02:06:17;;;;;;;4.80;3.22;;;18.20;99.90;;;;;;4964740;28;20573;-74
2021/06/12 02:08:45;;;;;;;3.40;3.20;;;18.10;99.90;;;;;;4959917;28;20213;-74
2021/06/12 02:11:13;;;;;;;3.35;3.13;;;18.10;99.90;;;;;;4963277;28;20573;-73
2021/06/12 02:13:41;;;;;;;3.20;3.00;;;18.10;99.90;;;;;;4967807;28;20208;-74
2021/06/12 02:16:09;;;;;;;3.65;3.45;;;18.10;99.90;;;;;;4962934;28;20751;-73
2021/06/12 02:18:38;;;;;;;2.97;2.78;;;18.10;99.90;;;;;;4964912;28;20217;-74
2021/06/12 02:21:05;;;;;;;3.53;3.22;;;18.10;99.90;;;;;;4972304;28;20211;-73
2021/06/12 02:23:35;;;;;;;3.58;3.30;;;18.00;99.90;;;;;;4964911;28;20283;-74
2021/06/12 02:26:03;;;;;;;3.42;3.13;;;18.00;99.90;;;;;;4963442;28;20578;-74
2021/06/12 02:28:34;;;;;;;3.15;2.95;;;18.00;99.90;;;;;;4962671;28;20237;-75
2021/06/12 02:31:04;;;;;;;3.15;2.95;;;17.90;99.90;;;;;;4964239;28;20225;-74
2021/06/12 02:33:32;;;;;;;3.42;3.22;;;17.90;99.90;;;;;;4959900;28;20264;-74
2021/06/12 02:36:01;;;;;;;3.53;3.33;;;17.80;99.90;;;;;;4969326;28;20206;-75
2021/06/12 02:38:29;;;;;;;3.13;2.92;;;17.80;99.90;;;;;;4976646;28;20240;-75
2021/06/12 02:40:58;;;;;;;3.50;3.30;;;17.80;99.90;;;;;;4967800;28;20229;-74
2021/06/12 02:43:25;;;;;;;3.78;3.47;;;17.70;99.90;;;;;;4962721;28;20225;-73
2021/06/12 02:45:52;;;;;;;3.40;3.20;;;17.70;99.90;;;;;;4965699;28;20336;-74
2021/06/12 02:48:19;;;;;;;3.65;3.38;;;17.70;99.90;;;;;;4960669;28;20252;-74
2021/06/12 02:50:48;;;;;;;3.67;3.38;;;17.70;99.90;;;;;;4976165;28;20221;-73
2021/06/12 02:53:17;;;;;;;3.63;3.38;;;17.70;99.90;;;;;;4963994;28;20217;-74
2021/06/12 02:55:48;;;;;;;3.30;3.10;;;17.70;99.90;;;;;;4965310;28;20229;-74
2021/06/12 02:58:22;;;;;;;3.40;3.10;;;17.60;99.90;;;;;;4965530;28;20722;-74
2021/06/12 03:00:50;;;;;;;3.35;3.15;;;17.60;99.90;;;;;;4961555;28;20221;-72
2021/06/12 03:03:17;;;;;;;3.53;3.33;;;17.60;99.90;;;;;;4965288;28;20223;-74
2021/06/12 03:05:49;;;;;;;3.15;2.95;;;17.50;99.90;;;;;;4968564;28;20197;-74
2021/06/12 03:08:18;;;;;;;3.72;3.42;;;17.50;99.90;;;;;;4965529;28;20228;-74
2021/06/12 03:10:46;;;;;;;2.90;2.70;;;17.50;99.90;;;;;;4961194;28;20241;-74
2021/06/12 03:13:17;;;;;;;3.63;3.40;;;17.50;99.90;;;;;;4964943;28;20220;-74
2021/06/12 03:15:47;;;;;;;4.05;3.75;;;17.50;99.90;;;;;;4966804;28;20236;-73
2021/06/12 03:18:14;;;;;;;3.40;3.20;;;17.50;99.90;;;;;;4966464;28;20225;-73
2021/06/12 03:20:42;;;;;;;3.45;3.25;;;17.40;99.90;;;;;;4972186;28;20227;-74
2021/06/12 03:23:09;;;;;;;3.75;3.53;;;17.40;99.90;;;;;;4974935;28;20233;-74
2021/06/12 03:25:37;;;;;;;3.38;3.17;;;17.40;99.90;;;;;;4963359;28;20208;-74
2021/06/12 03:28:04;;;;;;;3.45;3.25;;;17.40;99.90;;;;;;4964903;28;20232;-74
2021/06/12 03:30:32;;;;;;;3.42;3.20;;;17.30;99.90;;;;;;4967770;28;20241;-74
2021/06/12 03:33:01;;;;;;;3.20;3.00;;;17.30;99.90;;;;;;4964589;28;20300;-74
2021/06/12 03:35:29;;;;;;;3.10;2.90;;;17.30;99.90;;;;;;4961492;28;20617;-73
2021/06/12 03:37:56;;;;;;;3.25;3.05;;;17.30;99.90;;;;;;4963293;28;20217;-74
2021/06/12 03:40:23;;;;;;;3.33;3.08;;;17.30;99.90;;;;;;4976427;28;20219;-73
2021/06/12 03:42:51;;;;;;;3.40;3.20;;;17.20;99.90;;;;;;4972282;28;20213;-74
2021/06/12 03:45:18;;;;;;;3.40;3.20;;;17.20;99.90;;;;;;4963973;28;20198;-75
2021/06/12 03:47:48;;;;;;;3.03;2.83;;;17.20;99.90;;;;;;4964092;28;20297;-74
2021/06/12 03:50:18;;;;;;;3.30;3.00;;;17.30;99.90;;;;;;4969434;28;20561;-74
2021/06/12 03:52:46;;;;;;;3.10;2.90;;;17.30;99.90;;;;;;4967366;28;20226;-74
2021/06/12 03:55:13;;;;;;;3.25;3.00;;;17.30;99.90;;;;;;4963889;28;20724;-74
2021/06/12 03:57:40;;;;;;;3.85;3.55;;;17.40;99.90;;;;;;4960534;28;20237;-76
2021/06/12 04:00:10;;;;;;;3.22;2.90;;;17.40;99.90;;;;;;4965249;28;20229;-75
2021/06/12 04:02:37;;;;;;;3.08;2.88;;;17.40;99.90;;;;;;4961580;28;20731;-74
2021/06/12 04:05:06;;;;;;;2.95;2.75;;;17.50;99.90;;;;;;4969328;28;20202;-74
2021/06/12 04:07:37;;;;;;;3.13;2.92;;;17.50;99.90;;;;;;4968852;28;20225;-74
2021/06/12 04:10:05;;;;;;;3.13;2.92;;;17.60;99.90;;;;;;4984206;28;20240;-72
2021/06/12 04:12:32;;;;;;;3.35;3.15;;;17.60;99.90;;;;;;4968632;28;20229;-73
2021/06/12 04:14:59;;;;;;;3.30;3.00;;;17.70;99.90;;;;;;4965745;28;20194;-72
2021/06/12 04:17:25;;;;;;;3.28;3.08;;;17.70;99.90;;;;;;4965454;28;20676;-71
2021/06/12 04:19:52;;;;;;;3.10;2.90;;;17.70;99.90;;;;;;4973985;28;20230;-74
2021/06/12 04:22:19;;;;;;;3.30;3.05;;;17.80;99.90;;;;;;4970625;28;20786;-73
2021/06/12 04:24:47;;;;;;;3.00;2.80;;;17.90;99.90;;;;;;4965693;28;20206;-72
2021/06/12 04:27:14;;;;;;;3.13;2.92;;;17.90;99.90;;;;;;4970701;28;20229;-74
2021/06/12 04:29:40;;;;;;;2.70;2.50;;;18.00;99.90;;;;;;4968906;28;20221;-73
2021/06/12 04:32:07;;;;;;;3.70;3.40;;;18.00;99.90;;;;;;4975367;28;20442;-76
2021/06/12 04:34:34;;;;;;;3.17;2.97;;;18.00;99.90;;;;;;4966281;28;20198;-74
2021/06/12 04:37:02;;;;;;;3.35;2.80;;;18.10;99.90;;;;;;4972933;28;20248;-73
2021/06/12 04:39:29;;;;;;;3.50;3.20;;;18.10;99.90;;;;;;4969528;28;20272;-73
2021/06/12 04:41:57;;;;;;;2.97;2.78;;;18.20;99.90;;;;;;4969998;28;20194;-74
2021/06/12 04:44:24;;;;;;;3.30;3.00;;;18.30;99.90;;;;;;4973545;28;20205;-74
2021/06/12 04:46:51;;;;;;;3.22;3.03;;;18.40;99.90;;;;;;4973464;28;20193;-75
2021/06/12 04:49:18;;;;;;;5.30;2.78;;;18.50;99.90;;;;;;4975070;28;20241;-75
2021/06/12 04:51:44;;;;;;;2.53;2.33;;;18.70;99.90;;;;;;4973225;28;20233;-71
2021/06/12 04:54:11;;;;;;;3.33;3.13;;;18.80;99.90;;;;;;5003058;28;20188;-73
2021/06/12 04:56:38;;;;;;;3.55;3.25;;;18.80;99.90;;;;;;4990512;28;20209;-72
2021/06/12 04:59:06;;;;;;;3.38;3.17;;;18.80;99.90;;;;;;4990755;28;20225;-73
2021/06/12 05:01:33;;;;;;;3.72;3.42;;;18.80;99.90;;;;;;4992130;28;20212;-73
2021/06/12 05:03:59;;;;;;;3.92;3.63;;;18.90;99.90;;;;;;4991504;28;20916;-72
2021/06/12 05:06:26;;;;;;;3.45;3.15;;;19.00;99.90;;;;;;4994556;28;20251;-72
2021/06/12 05:08:53;;;;;;;4.18;3.78;;;19.10;99.90;;;;;;4997760;28;20227;-73
2021/06/12 05:11:19;;;;;;;3.88;3.58;;;19.10;99.90;;;;;;4996704;28;20193;-71
2021/06/12 05:13:46;;;;;;;3.85;3.55;;;19.10;99.90;;;;;;4991269;28;20224;-72
2021/06/12 05:16:15;;;;;;;4.32;3.92;;;19.10;99.90;;;;;;4990262;28;20248;-72
2021/06/12 05:18:44;;;;;;;4.07;3.78;;;19.20;99.90;;;;;;4992433;28;20307;-72
2021/06/12 05:21:12;;;;;;;4.03;3.72;;;19.20;99.90;;;;;;4991424;28;20205;-72
2021/06/12 05:23:39;;;;;;;3.97;3.53;;;19.30;99.90;;;;;;5007463;28;20283;-73
2021/06/12 05:26:06;;;;;;;3.83;3.47;;;19.30;99.90;;;;;;4995295;28;20275;-72
2021/06/12 05:28:33;;;;;;;4.13;3.83;;;19.40;99.90;;;;;;4990966;28;20742;-72
2021/06/12 05:30:59;;;;;;;4.03;3.72;;;19.50;99.90;;;;;;4991386;28;20699;-72
2021/06/12 05:33:27;;;;;;;4.28;3.65;;;19.50;99.90;;;;;;4992067;28;20227;-72
2021/06/12 05:35:57;;;;;;;4.13;3.17;;;19.50;99.90;;;;;;4986179;28;20198;-73
2021/06/12 05:38:25;;;;;;;3.72;3.50;;;19.60;99.90;;;;;;4994197;28;20233;-72
2021/06/12 05:40:52;;;;;;;4.00;3.70;;;19.70;99.90;;;;;;5012664;28;20299;-73
2021/06/12 05:43:19;;;;;;;3.88;3.50;;;19.80;99.90;;;;;;4990783;28;20217;-72
2021/06/12 05:45:46;;;;;;;4.63;4.03;;;19.80;99.90;;;;;;4990956;28;20205;-73
2021/06/12 05:48:12;;;;;;;4.65;4.13;;;19.90;99.90;;;;;;4992744;28;20219;-73
2021/06/12 05:50:40;;;;;;;4.05;3.67;;;19.80;99.90;;;;;;4992370;28;20722;-73
2021/06/12 05:53:07;;;;;;;4.03;3.63;;;19.80;99.90;;;;;;4998031;28;20220;-72
2021/06/12 05:55:34;;;;;;;4.00;3.70;;;19.80;99.90;;;;;;4986423;28;20571;-73
2021/06/12 05:58:01;;;;;;;4.50;4.10;;;19.80;99.90;;;;;;4997071;28;20220;-72
2021/06/12 06:00:28;;;;;;;3.80;3.50;;;19.90;99.90;;;;;;4995118;28;20221;-72
2021/06/12 06:02:54;;;;;;;3.75;3.45;;;20.10;99.90;;;;;;4985774;28;20645;-73
2021/06/12 06:05:21;;;;;;;4.22;3.92;;;20.30;99.90;;;;;;4991735;28;20264;-72
2021/06/12 06:07:49;;;;;;;3.80;3.53;;;20.30;99.90;;;;;;4993535;28;20293;-72
2021/06/12 06:10:16;;;;;;;4.10;3.80;;;20.40;99.90;;;;;;4997740;28;20221;-73
2021/06/12 06:12:43;;;;;;;4.38;4.03;;;20.30;99.90;;;;;;4991264;28;20280;-72
2021/06/12 06:15:11;;;;;;;4.60;4.25;;;20.30;99.90;;;;;;5013721;28;20208;-72
2021/06/12 06:17:38;;;;;;;4.00;3.70;;;20.40;99.90;;;;;;4987843;28;20278;-72
2021/06/12 06:20:07;;;;;;;4.18;3.88;;;20.50;99.90;;;;;;4989139;28;20228;-71
2021/06/12 06:22:34;;;;;;;4.28;3.85;;;20.70;99.90;;;;;;4991390;28;20232;-72
2021/06/12 06:25:02;;;;;;;3.75;3.45;;;20.70;99.90;;;;;;4994909;28;20780;-73
2021/06/12 06:27:29;;;;;;;3.42;3.22;;;20.80;99.90;;;;;;5005505;28;20228;-73
2021/06/12 06:29:56;;;;;;;4.00;3.70;;;21.00;99.90;;;;;;4995837;28;20229;-74
2021/06/12 06:32:22;;;;;;;3.42;3.13;;;21.10;99.90;;;;;;4988982;28;20252;-73
2021/06/12 06:34:49;;;;;;;4.20;3.80;;;21.30;99.90;;;;;;4996032;28;20645;-73
2021/06/12 06:37:16;;;;;;;3.90;3.60;;;21.30;99.90;;;;;;4989546;28;20304;-73
2021/06/12 06:39:43;;;;;;;3.80;3.53;;;21.20;99.90;;;;;;4988730;28;20224;-73
2021/06/12 06:42:11;;;;;;;4.63;3.75;;;21.10;99.90;;;;;;4983750;28;20203;-73
2021/06/12 06:44:38;;;;;;;4.28;3.97;;;21.00;99.90;;;;;;4992884;28;20197;-73
2021/06/12 06:47:05;;;;;;;3.72;3.42;;;21.10;99.90;;;;;;4991467;28;20284;-73
2021/06/12 06:49:32;;;;;;;4.57;4.03;;;21.20;99.90;;;;;;4989964;28;20220;-73
2021/06/12 06:51:59;;;;;;;4.50;3.70;;;21.20;99.90;;;;;;4987592;28;20287;-73
2021/06/12 06:54:25;;;;;;;3.92;3.63;;;21.20;99.90;;;;;;4990066;28;20747;-72
2021/06/12 06:56:52;;;;;;;4.22;3.92;;;21.40;99.90;;;;;;4993567;28;20290;-73
2021/06/12 06:59:20;;;;;;;3.75;3.45;;;21.50;99.90;;;;;;4990277;28;20751;-72
2021/06/12 07:01:47;;;;;;;3.90;3.60;;;21.50;99.90;;;;;;4986010;28;20308;-73
2021/06/12 07:04:14;;;;;;;4.70;3.95;;;21.50;99.90;;;;;;4987726;28;21192;-73
2021/06/12 07:06:41;;;;;;;3.75;3.53;;;21.80;99.90;;;;;;5004759;28;20229;-73
2021/06/12 07:09:07;;;;;;;4.65;4.25;;;21.80;99.90;;;;;;4989120;28;20300;-72
2021/06/12 07:11:34;;;;;;;4.65;4.20;;;21.80;99.90;;;;;;4996419;28;20224;-73
2021/06/12 07:14:01;;;;;;;4.35;3.95;;;21.70;99.90;;;;;;4991703;28;20247;-73
2021/06/12 07:16:29;;;;;;;4.47;4.07;;;21.70;99.90;;;;;;4983369;28;20284;-74
2021/06/12 07:18:57;;;;;;;4.18;3.78;;;21.70;99.90;;;;;;4988551;28;20300;-73
2021/06/12 07:21:24;;;;;;;4.57;3.63;;;21.70;99.90;;;;;;4988113;28;20193;-72
2021/06/12 07:23:50;;;;;;;4.05;3.53;;;22.00;99.90;;;;;;4984034;28;20782;-73
2021/06/12 07:26:17;;;;;;;3.88;3.58;;;22.40;99.90;;;;;;4985713;28;20284;-72
2021/06/12 07:28:44;;;;;;;5.35;3.70;;;22.60;99.90;;;;;;4984369;28;20258;-73
2021/06/12 07:31:11;;;;;;;4.18;3.88;;;22.80;99.90;;;;;;4984408;28;20225;-73
2021/06/12 07:33:39;;;;;;;4.05;3.60;;;22.90;99.90;;;;;;4980735;28;20216;-71
2021/06/12 07:36:06;;;;;;;4.30;3.95;;;22.90;99.90;;;;;;4978642;28;20284;-72
2021/06/12 07:38:33;;;;;;;4.50;4.10;;;23.00;99.90;;;;;;4979665;28;20336;-72
2021/06/12 07:41:00;;;;;;;3.90;3.60;;;23.10;99.90;;;;;;4982843;28;20721;-73
2021/06/12 07:43:26;;;;;;;4.32;3.90;;;23.20;99.90;;;;;;4981670;28;20227;-73
2021/06/12 07:45:53;;;;;;;3.58;3.38;;;23.40;99.90;;;;;;4984139;28;20240;-73
2021/06/12 07:48:20;;;;;;;4.05;3.75;;;23.70;99.90;;;;;;4985728;28;20216;-72
2021/06/12 07:50:48;;;;;;;4.35;3.55;;;23.80;99.90;;;;;;4986790;28;20709;-73
2021/06/12 07:53:15;;;;;;;3.28;3.08;;;23.90;99.90;;;;;;4978522;28;20709;-73
2021/06/12 07:55:42;;;;;;;6.38;3.92;;;24.00;99.90;;;;;;4982402;28;20296;-73
2021/06/12 07:58:09;;;;;;;3.80;3.50;;;24.30;99.90;;;;;;5004881;28;20259;-74
2021/06/12 08:00:35;;;;;;;3.88;3.53;;;24.40;99.90;;;;;;4990068;28;20964;-73
2021/06/12 08:03:02;;;;;;;4.25;3.78;;;24.60;99.90;;;;;;4984632;28;20368;-73
2021/06/12 08:05:29;;;;;;;3.30;3.10;;;24.70;99.90;;;;;;4984052;28;20312;-72
2021/06/12 08:07:58;;;;;;;3.83;2.95;;;24.70;99.90;;;;;;4990441;28;20235;-72
2021/06/12 08:10:25;;;;;;;3.90;3.45;;;24.80;99.90;;;;;;4984935;28;20424;-73
2021/06/12 08:12:52;;;;;;;3.17;2.88;;;24.80;99.90;;;;;;4988820;28;20361;-73
2021/06/12 08:15:19;;;;;;;3.50;3.20;;;24.70;99.90;;;;;;4982765;28;20450;-71
2021/06/12 08:17:46;;;;;;;3.10;2.90;;;24.70;99.90;;;;;;4985656;28;20320;-72
2021/06/12 08:20:13;;;;;;;4.68;3.20;;;24.60;99.90;;;;;;4985804;28;20319;-71
2021/06/12 08:22:41;;;;;;;2.85;2.65;;;24.70;99.90;;;;;;4989442;28;20220;-72
2021/06/12 08:25:10;;;;;;;3.10;2.90;;;24.70;99.90;;;;;;4983767;28;20208;-73
2021/06/12 08:27:37;;;;;;;3.38;3.08;;;25.00;99.90;;;;;;4982045;28;20251;-73
2021/06/12 08:30:06;;;;;;;3.03;2.83;;;25.00;99.90;;;;;;4990396;28;20221;-72
2021/06/12 08:32:33;;;;;;;3.53;3.22;;;25.20;99.90;;;;;;4982398;28;20236;-73
2021/06/12 08:35:00;;;;;;;3.05;2.85;;;25.20;99.90;;;;;;4985239;28;20280;-72
2021/06/12 08:37:26;;;;;;;2.70;2.38;;;25.30;99.90;;;;;;4986317;28;20320;-73
2021/06/12 08:39:55;;;;;;;2.92;2.72;;;25.40;99.90;;;;;;4990912;28;20304;-71
2021/06/12 08:42:23;;;;;;;2.90;2.70;;;25.40;99.90;;;;;;4993261;28;20403;-75
2021/06/12 08:44:53;;;;;;;3.00;2.80;;;25.70;99.90;;;;;;4994269;28;20219;-74
2021/06/12 08:47:20;;;;;;;3.28;3.08;;;25.80;99.90;;;;;;4983986;28;20275;-75
2021/06/12 08:49:47;;;;;;;3.45;3.05;;;25.70;99.90;;;;;;4997206;28;20686;-75
2021/06/12 08:52:14;;;;;;;3.20;3.00;;;25.50;99.90;;;;;;4986653;28;20231;-75
2021/06/12 08:54:41;;;;;;;3.78;3.20;;;25.50;99.90;;;;;;4982997;28;20224;-75
2021/06/12 08:57:09;;;;;;;3.00;2.80;;;25.70;99.90;;;;;;4985407;28;20656;-76
2021/06/12 08:59:37;;;;;;;3.20;3.00;;;25.70;99.90;;;;;;4982808;28;20765;-76
2021/06/12 09:02:05;;;;;;;3.40;3.10;;;25.80;99.90;;;;;;4985699;28;20297;-74
2021/06/12 09:04:33;;;;;;;3.10;2.90;;;26.00;99.90;;;;;;4984628;28;20320;-74
2021/06/12 09:07:23;;;;;;;2.78;2.58;;;25.90;99.90;;;;;;4987868;28;20726;-75
2021/06/12 09:09:51;;;;;;;3.85;3.55;;;25.90;99.90;;;;;;4980548;28;20228;-74
2021/06/12 09:12:18;;;;;;;3.53;3.22;;;26.00;99.90;;;;;;4984894;28;20312;-75
2021/06/12 09:15:08;;;;;;;3.00;2.80;;;26.00;99.90;;;;;;4982930;28;20313;-74
2021/06/12 09:17:39;;;;;;;3.55;3.25;;;26.10;99.90;;;;;;4984360;28;20703;-74
2021/06/12 09:20:08;;;;;;;3.20;3.00;;;26.30;99.90;;;;;;4984474;28;20323;-75
2021/06/12 09:22:35;;;;;;;3.35;3.15;;;26.40;99.90;;;;;;4984894;28;20213;-72
2021/06/12 09:25:02;;;;;;;2.88;2.67;;;26.50;99.90;;;;;;4978815;28;20208;-72
2021/06/12 09:27:29;;;;;;;3.13;2.92;;;26.70;99.90;;;;;;4983221;28;20351;-74
2021/06/12 09:30:01;;;;;;;2.83;2.60;;;26.80;99.90;;;;;;4992540;28;20224;-74
2021/06/12 09:32:31;;;;;;;4.80;3.00;;;26.90;99.90;;;;;;4983144;28;20247;-76
2021/06/12 09:35:06;;;;;;;4.68;3.00;;;27.00;99.90;;;;;;4971902;28;20317;-76
2021/06/12 09:37:33;;;;;;;3.30;3.10;;;27.00;99.90;;;;;;4965559;28;20591;-75
2021/06/12 09:40:01;;;;;;;3.50;3.20;;;27.00;99.90;;;;;;4977553;28;20229;-76
2021/06/12 09:42:42;;;;;;;3.08;2.65;;;27.00;99.90;;;;;;4962571;28;20213;-75
2021/06/12 09:45:12;;;;;;;3.30;3.00;;;27.10;99.90;;;;;;4961060;28;20245;-75
2021/06/12 09:47:40;;;;;;;3.05;2.70;;;27.20;99.90;;;;;;4963687;28;20229;-75
2021/06/12 09:50:10;;;;;;;3.63;2.95;;;27.30;99.90;;;;;;4960376;28;20787;-75
2021/06/12 09:52:45;;;;;;;3.15;2.92;;;27.50;99.90;;;;;;4958972;28;20286;-76
2021/06/12 09:55:22;;;;;;;3.05;2.80;;;27.60;99.90;;;;;;4975151;28;20473;-75
2021/06/12 09:57:51;;;;;;;4.35;3.10;;;27.60;99.90;;;;;;4977048;28;20315;-76
2021/06/12 10:00:29;;;;;;;2.90;2.70;;;27.60;99.90;;;;;;4956168;28;20749;-74
2021/06/12 10:02:57;;;;;;;3.08;2.88;;;27.70;99.90;;;;;;4956916;28;20238;-76
2021/06/12 10:05:26;;;;;;;3.22;3.03;;;27.80;99.90;;;;;;4955137;28;20212;-75
2021/06/12 10:07:53;;;;;;;3.42;3.22;;;27.90;99.90;;;;;;4959320;28;20201;-75
2021/06/12 10:10:20;;;;;;;2.80;2.60;;;27.80;99.90;;;;;;4955849;28;20493;-76
2021/06/12 10:12:47;;;;;;;3.03;2.83;;;27.80;99.90;;;;;;4959956;28;20256;-76
2021/06/12 10:15:15;;;;;;;2.90;2.70;;;27.80;99.90;;;;;;4975680;28;20221;-76
2021/06/12 10:17:47;;;;;;;2.90;2.70;;;28.10;99.90;;;;;;4965658;28;20253;-75
2021/06/12 10:20:15;;;;;;;4.43;2.80;;;28.40;99.90;;;;;;4962283;28;20407;-75
2021/06/12 10:22:44;;;;;;;3.08;2.88;;;28.40;99.90;;;;;;4961330;28;20285;-75
2021/06/12 10:25:12;;;;;;;2.95;2.60;;;28.50;99.90;;;;;;4959710;28;20347;-74
2021/06/12 10:27:41;;;;;;;2.90;2.60;;;28.60;99.90;;;;;;4961094;28;20281;-75
2021/06/12 10:30:09;;;;;;;3.22;2.90;;;28.70;99.90;;;;;;4964659;28;20228;-75
2021/06/12 10:32:37;;;;;;;3.78;2.70;;;28.90;99.90;;;;;;4970956;28;20324;-76
2021/06/12 10:35:06;;;;;;;2.80;2.60;;;29.00;99.90;;;;;;4958829;28;20308;-75
2021/06/12 10:37:57;;;;;;;2.70;2.50;;;28.90;99.90;;;;;;4962775;28;20225;-75
2021/06/12 10:40:36;;;;;;;2.30;2.20;;;29.20;99.90;;;;;;4963310;28;20752;-75
2021/06/12 10:43:08;;;;;;;2.50;2.30;;;29.20;99.90;;;;;;4961866;28;20201;-74
2021/06/12 10:45:34;;;;;;;2.88;2.67;;;29.20;99.90;;;;;;4965987;28;20197;-73
2021/06/12 10:48:01;;;;;;;2.63;2.42;;;29.20;99.90;;;;;;4962375;28;20672;-74
2021/06/12 10:50:46;;;;;;;2.40;2.25;;;29.30;99.90;;;;;;4960142;28;20213;-75
2021/06/12 10:53:32;;;;;;;2.30;2.20;;;29.30;99.90;;;;;;4958480;28;20197;-75
2021/06/12 10:56:00;;;;;;;3.55;2.22;;;29.50;99.90;;;;;;4959110;28;20210;-73
2021/06/12 10:58:45;;;;;;;2.10;2.00;;;29.60;99.90;;;;;;4961279;28;20233;-75
2021/06/12 11:01:14;;;;;;;2.45;2.20;;;29.60;99.90;;;;;;4975088;28;20210;-74
2021/06/12 11:04:02;;;;;;;2.15;2.05;;;29.70;99.90;;;;;;4963121;28;20284;-74
2021/06/12 11:06:49;;;;;;;2.13;2.03;;;29.90;99.90;;;;;;4962479;28;20672;-72
2021/06/12 11:09:39;;;;;;;1.92;1.83;;;30.10;99.90;;;;;;4970127;28;20233;-74
2021/06/12 11:12:34;;;;;;;2.17;1.95;;;30.10;99.90;;;;;;4978864;28;21882;-73
2021/06/12 11:15:07;;;;;;;1.63;1.52;;;30.30;99.00;;;;;;4961780;28;20217;-74
2021/06/12 11:17:34;;;;;;;8.65;1.70;;;30.50;99.90;;;;;;4983270;28;20276;-71
2021/06/12 11:20:29;;;;;;;1.80;1.70;;;30.40;99.90;;;;;;4979506;28;20293;-74
2021/06/12 11:23:05;;;;;;;2.17;1.90;;;30.20;99.20;;;;;;5003543;28;20205;-74
2021/06/12 11:25:54;;;;;;;1.90;1.80;;;29.60;99.60;;;;;;4992508;28;20770;-73
2021/06/12 11:28:24;;;;;;;1.98;1.88;;;29.50;99.90;;;;;;4984879;28;20197;-72
2021/06/12 11:30:52;;;;;;;2.00;1.80;;;29.70;99.90;;;;;;4982359;28;20228;-74
2021/06/12 11:33:19;;;;;;;2.58;1.73;;;29.90;99.90;;;;;;4985052;28;20201;-73
2021/06/12 11:35:48;;;;;;;1.95;1.85;;;30.10;99.90;;;;;;4963848;28;20201;-75
2021/06/12 11:38:18;;;;;;;2.17;2.00;;;30.20;99.90;;;;;;4965853;28;20226;-75
2021/06/12 11:40:57;;;;;;;2.30;2.10;;;30.30;99.90;;;;;;4965643;28;20236;-73
2021/06/12 11:43:40;;;;;;;2.30;2.10;;;30.20;99.80;;;;;;4964827;28;21027;-74
2021/06/12 11:46:08;;;;;;;1.98;1.77;;;30.30;98.30;;;;;;4972444;28;20258;-75
2021/06/12 11:48:40;;;;;;;2.17;1.98;;;30.40;99.00;;;;;;4978136;28;20232;-75
2021/06/12 11:51:17;;;;;;;2.00;1.90;;;30.50;98.20;;;;;;4983503;28;20666;-75
2021/06/12 11:54:01;;;;;;;2.10;2.00;;;30.40;97.20;;;;;;4983874;28;20247;-76
2021/06/12 11:56:32;;;;;;;2.00;1.80;;;30.40;97.70;;;;;;4978794;28;21015;-74
2021/06/12 11:58:59;;;;;;;1.83;1.73;;;30.30;98.40;;;;;;4971478;28;20443;-74
2021/06/12 12:01:42;;;;;;;2.17;2.00;;;30.40;98.50;;;;;;4958584;28;20246;-74
2021/06/12 12:04:14;;;;;;;2.05;1.95;;;30.30;98.40;;;;;;4961462;28;20225;-74
2021/06/12 12:06:49;;;;;;;1.65;1.55;;;30.40;98.90;;;;;;4960214;28;20351;-73
2021/06/12 12:09:27;;;;;;;1.65;1.55;;;30.40;97.60;;;;;;4973386;28;20224;-75
2021/06/12 12:11:55;;;;;;;1.90;1.80;;;30.50;97.40;;;;;;4989279;28;20693;-75
2021/06/12 12:14:30;;;;;;;2.75;2.00;;;30.60;97.70;;;;;;4981611;28;20267;-75
2021/06/12 12:16:58;;;;;;;1.88;1.77;;;30.60;97.50;;;;;;4981434;28;20220;-73
2021/06/12 12:19:27;;;;;;;1.92;1.83;;;30.60;97.20;;;;;;4980698;28;20224;-75
2021/06/12 12:21:56;;;;;;;1.55;1.45;;;30.90;97.20;;;;;;4982969;28;20263;-75
2021/06/12 12:24:24;;;;;;;1.45;1.35;;;31.10;96.10;;;;;;4981859;28;20267;-74
2021/06/12 12:27:00;;;;;;;1.80;1.70;;;31.30;96.40;;;;;;4977484;28;20219;-74
2021/06/12 12:29:29;;;;;;;1.60;1.50;;;31.30;94.60;;;;;;4977277;28;20224;-74
2021/06/12 12:31:59;;;;;;;1.33;1.20;;;31.30;95.60;;;;;;4991222;28;20629;-74
2021/06/12 12:34:32;;;;;;;1.73;1.63;;;31.30;93.30;;;;;;4987552;28;20536;-72
2021/06/12 12:37:01;;;;;;;1.75;1.42;;;31.30;93.30;;;;;;4989744;28;20220;-75
2021/06/12 12:39:44;;;;;;;1.55;1.45;;;31.30;91.80;;;;;;4978665;28;20231;-75
2021/06/12 12:42:18;;;;;;;1.60;1.50;;;31.10;91.10;;;;;;4978442;28;20197;-74
2021/06/12 12:44:49;;;;;;;1.50;1.40;;;31.20;91.00;;;;;;4986280;28;20216;-74
2021/06/12 12:47:20;;;;;;;1.25;1.25;;;31.20;93.00;;;;;;4983477;28;20205;-74
2021/06/12 12:49:47;;;;;;;1.48;1.40;;;31.40;92.50;;;;;;4984732;28;20224;-72
2021/06/12 12:52:20;;;;;;;1.30;1.20;;;31.50;92.10;;;;;;4983499;28;20204;-74
2021/06/12 12:54:59;;;;;;;1.40;1.30;;;31.30;91.40;;;;;;4983324;28;20735;-74
2021/06/12 12:57:26;;;;;;;1.98;1.45;;;31.30;89.00;;;;;;4980094;28;20205;-74
2021/06/12 12:59:53;;;;;;;1.67;1.58;;;31.30;90.20;;;;;;4979427;28;20585;-73